sensor_id;sensor_type;location;lat;lon;timestamp;P1;durP1;ratioP1;P2;durP2;ratioP2
53875;SDS011;39789;53.216;5.624;2022-11-15T00:00:16;21.02;;;15.48;;
53875;SDS011;39789;53.216;5.624;2022-11-15T00:02:42;23.65;;;16.45;;
53875;SDS011;39789;53.216;5.624;2022-11-15T00:05:07;25.58;;;16.63;;
53875;SDS011;39789;53.216;5.624;2022-11-15T00:07:33;24.15;;;15.63;;
53875;SDS011;39789;53.216;5.624;2022-11-15T00:09:58;26.35;;;16.70;;
53875;SDS011;39789;53.216;5.624;2022-11-15T00:12:24;22.10;;;16.88;;
53875;SDS011;39789;53.216;5.624;2022-11-15T00:14:49;23.13;;;16.20;;
53875;SDS011;39789;53.216;5.624;2022-11-15T00:17:15;26.20;;;16.90;;
53875;SDS011;39789;53.216;5.624;2022-11-15T00:19:40;24.80;;;17.77;;
53875;SDS011;39789;53.216;5.624;2022-11-15T00:22:06;22.83;;;16.52;;
53875;SDS011;39789;53.216;5.624;2022-11-15T00:24:31;27.25;;;18.02;;
53875;SDS011;39789;53.216;5.624;2022-11-15T00:26:57;22.20;;;16.63;;
53875;SDS011;39789;53.216;5.624;2022-11-15T00:29:22;21.55;;;15.75;;
53875;SDS011;39789;53.216;5.624;2022-11-15T00:31:48;23.73;;;16.23;;
53875;SDS011;39789;53.216;5.624;2022-11-15T00:34:13;27.13;;;17.23;;
53875;SDS011;39789;53.216;5.624;2022-11-15T00:36:39;24.80;;;17.70;;
53875;SDS011;39789;53.216;5.624;2022-11-15T00:39:05;29.08;;;20.08;;
53875;SDS011;39789;53.216;5.624;2022-11-15T00:41:30;27.70;;;20.10;;
53875;SDS011;39789;53.216;5.624;2022-11-15T00:43:56;29.00;;;19.27;;
53875;SDS011;39789;53.216;5.624;2022-11-15T00:46:22;31.23;;;20.58;;
53875;SDS011;39789;53.216;5.624;2022-11-15T00:48:47;26.88;;;19.20;;
53875;SDS011;39789;53.216;5.624;2022-11-15T00:51:13;30.95;;;19.95;;
53875;SDS011;39789;53.216;5.624;2022-11-15T00:53:38;28.15;;;20.23;;
53875;SDS011;39789;53.216;5.624;2022-11-15T00:56:04;26.38;;;18.75;;
53875;SDS011;39789;53.216;5.624;2022-11-15T00:58:30;26.35;;;18.80;;
53875;SDS011;39789;53.216;5.624;2022-11-15T01:00:55;29.42;;;19.35;;
53875;SDS011;39789;53.216;5.624;2022-11-15T01:03:21;26.10;;;18.50;;
53875;SDS011;39789;53.216;5.624;2022-11-15T01:05:47;28.65;;;20.08;;
53875;SDS011;39789;53.216;5.624;2022-11-15T01:08:13;27.05;;;19.15;;
53875;SDS011;39789;53.216;5.624;2022-11-15T01:10:40;29.98;;;19.70;;
53875;SDS011;39789;53.216;5.624;2022-11-15T01:13:06;26.48;;;18.30;;
53875;SDS011;39789;53.216;5.624;2022-11-15T01:15:32;29.23;;;20.50;;
53875;SDS011;39789;53.216;5.624;2022-11-15T01:17:57;29.83;;;20.48;;
53875;SDS011;39789;53.216;5.624;2022-11-15T01:20:23;29.30;;;21.20;;
53875;SDS011;39789;53.216;5.624;2022-11-15T01:22:48;29.55;;;20.60;;
53875;SDS011;39789;53.216;5.624;2022-11-15T01:25:14;32.92;;;21.95;;
53875;SDS011;39789;53.216;5.624;2022-11-15T01:27:39;31.88;;;22.35;;
53875;SDS011;39789;53.216;5.624;2022-11-15T01:30:05;35.05;;;22.58;;
53875;SDS011;39789;53.216;5.624;2022-11-15T01:32:31;32.35;;;22.48;;
53875;SDS011;39789;53.216;5.624;2022-11-15T01:34:57;34.78;;;22.48;;
53875;SDS011;39789;53.216;5.624;2022-11-15T01:37:22;33.75;;;20.80;;
53875;SDS011;39789;53.216;5.624;2022-11-15T01:39:48;30.00;;;21.20;;
53875;SDS011;39789;53.216;5.624;2022-11-15T01:42:13;30.35;;;21.92;;
53875;SDS011;39789;53.216;5.624;2022-11-15T01:44:41;36.97;;;24.02;;
53875;SDS011;39789;53.216;5.624;2022-11-15T01:47:11;34.70;;;23.70;;
53875;SDS011;39789;53.216;5.624;2022-11-15T01:49:46;33.47;;;23.80;;
53875;SDS011;39789;53.216;5.624;2022-11-15T01:52:16;34.28;;;22.45;;
53875;SDS011;39789;53.216;5.624;2022-11-15T01:54:44;36.13;;;23.77;;
53875;SDS011;39789;53.216;5.624;2022-11-15T01:57:12;35.30;;;23.83;;
53875;SDS011;39789;53.216;5.624;2022-11-15T01:59:39;32.28;;;22.27;;
53875;SDS011;39789;53.216;5.624;2022-11-15T02:02:08;30.23;;;20.10;;
53875;SDS011;39789;53.216;5.624;2022-11-15T02:04:35;37.53;;;21.95;;
53875;SDS011;39789;53.216;5.624;2022-11-15T02:07:05;32.55;;;22.15;;
53875;SDS011;39789;53.216;5.624;2022-11-15T02:09:35;36.10;;;22.10;;
53875;SDS011;39789;53.216;5.624;2022-11-15T02:12:02;34.05;;;20.45;;
53875;SDS011;39789;53.216;5.624;2022-11-15T02:14:28;36.20;;;21.55;;
53875;SDS011;39789;53.216;5.624;2022-11-15T02:16:59;41.08;;;25.17;;
53875;SDS011;39789;53.216;5.624;2022-11-15T02:19:58;44.35;;;26.38;;
53875;SDS011;39789;53.216;5.624;2022-11-15T02:26:05;42.25;;;24.63;;
53875;SDS011;39789;53.216;5.624;2022-11-15T02:34:33;35.25;;;22.55;;
53875;SDS011;39789;53.216;5.624;2022-11-15T02:37:11;36.42;;;22.77;;
53875;SDS011;39789;53.216;5.624;2022-11-15T02:39:45;32.40;;;20.52;;
53875;SDS011;39789;53.216;5.624;2022-11-15T02:42:21;35.38;;;23.15;;
53875;SDS011;39789;53.216;5.624;2022-11-15T02:45:09;31.38;;;20.77;;
53875;SDS011;39789;53.216;5.624;2022-11-15T02:47:43;39.45;;;24.63;;
53875;SDS011;39789;53.216;5.624;2022-11-15T02:50:12;34.80;;;22.92;;
53875;SDS011;39789;53.216;5.624;2022-11-15T02:52:43;32.00;;;21.23;;
53875;SDS011;39789;53.216;5.624;2022-11-15T02:55:26;35.50;;;23.02;;
53875;SDS011;39789;53.216;5.624;2022-11-15T02:58:30;36.88;;;23.35;;
53875;SDS011;39789;53.216;5.624;2022-11-15T03:01:22;37.28;;;23.58;;
53875;SDS011;39789;53.216;5.624;2022-11-15T03:04:18;47.72;;;25.35;;
53875;SDS011;39789;53.216;5.624;2022-11-15T03:07:14;41.25;;;23.88;;
53875;SDS011;39789;53.216;5.624;2022-11-15T03:10:02;42.83;;;25.45;;
53875;SDS011;39789;53.216;5.624;2022-11-15T03:15:14;47.90;;;25.83;;
53875;SDS011;39789;53.216;5.624;2022-11-15T03:17:51;43.35;;;25.52;;
53875;SDS011;39789;53.216;5.624;2022-11-15T03:20:24;41.90;;;24.10;;
53875;SDS011;39789;53.216;5.624;2022-11-15T03:22:52;45.85;;;25.50;;
53875;SDS011;39789;53.216;5.624;2022-11-15T03:25:20;45.72;;;26.63;;
53875;SDS011;39789;53.216;5.624;2022-11-15T03:27:50;63.83;;;28.98;;
53875;SDS011;39789;53.216;5.624;2022-11-15T03:30:18;61.08;;;28.98;;
53875;SDS011;39789;53.216;5.624;2022-11-15T03:32:46;60.85;;;29.98;;
53875;SDS011;39789;53.216;5.624;2022-11-15T03:35:23;53.53;;;27.63;;
53875;SDS011;39789;53.216;5.624;2022-11-15T03:37:55;61.47;;;30.88;;
53875;SDS011;39789;53.216;5.624;2022-11-15T03:40:29;54.58;;;28.17;;
53875;SDS011;39789;53.216;5.624;2022-11-15T03:43:07;55.58;;;26.73;;
53875;SDS011;39789;53.216;5.624;2022-11-15T03:45:41;58.75;;;27.45;;
53875;SDS011;39789;53.216;5.624;2022-11-15T03:48:16;55.65;;;26.50;;
53875;SDS011;39789;53.216;5.624;2022-11-15T03:50:46;52.40;;;25.88;;
53875;SDS011;39789;53.216;5.624;2022-11-15T03:53:13;50.83;;;25.65;;
53875;SDS011;39789;53.216;5.624;2022-11-15T03:55:39;50.72;;;26.15;;
53875;SDS011;39789;53.216;5.624;2022-11-15T03:58:04;51.17;;;26.98;;
53875;SDS011;39789;53.216;5.624;2022-11-15T04:00:30;50.45;;;25.58;;
53875;SDS011;39789;53.216;5.624;2022-11-15T04:02:55;46.78;;;25.40;;
53875;SDS011;39789;53.216;5.624;2022-11-15T04:05:21;46.60;;;23.92;;
53875;SDS011;39789;53.216;5.624;2022-11-15T04:07:47;50.42;;;25.35;;
53875;SDS011;39789;53.216;5.624;2022-11-15T04:10:12;51.78;;;26.00;;
53875;SDS011;39789;53.216;5.624;2022-11-15T04:12:39;78.55;;;30.65;;
53875;SDS011;39789;53.216;5.624;2022-11-15T04:15:11;64.10;;;30.15;;
53875;SDS011;39789;53.216;5.624;2022-11-15T04:17:39;86.45;;;31.95;;
53875;SDS011;39789;53.216;5.624;2022-11-15T04:22:56;81.13;;;30.02;;
53875;SDS011;39789;53.216;5.624;2022-11-15T04:25:42;85.75;;;32.88;;
53875;SDS011;39789;53.216;5.624;2022-11-15T04:28:09;83.30;;;32.40;;
53875;SDS011;39789;53.216;5.624;2022-11-15T04:30:35;77.53;;;31.52;;
53875;SDS011;39789;53.216;5.624;2022-11-15T04:33:00;79.75;;;33.75;;
53875;SDS011;39789;53.216;5.624;2022-11-15T04:35:26;94.95;;;34.50;;
53875;SDS011;39789;53.216;5.624;2022-11-15T04:37:52;79.10;;;31.50;;
53875;SDS011;39789;53.216;5.624;2022-11-15T04:40:19;76.15;;;33.17;;
53875;SDS011;39789;53.216;5.624;2022-11-15T04:42:44;69.25;;;32.50;;
53875;SDS011;39789;53.216;5.624;2022-11-15T04:45:10;85.35;;;34.00;;
53875;SDS011;39789;53.216;5.624;2022-11-15T04:47:36;91.53;;;34.90;;
53875;SDS011;39789;53.216;5.624;2022-11-15T04:50:02;64.60;;;29.80;;
53875;SDS011;39789;53.216;5.624;2022-11-15T04:52:28;81.55;;;32.95;;
53875;SDS011;39789;53.216;5.624;2022-11-15T04:54:53;73.03;;;31.25;;
53875;SDS011;39789;53.216;5.624;2022-11-15T04:57:19;69.88;;;30.70;;
53875;SDS011;39789;53.216;5.624;2022-11-15T04:59:44;66.40;;;29.90;;
53875;SDS011;39789;53.216;5.624;2022-11-15T05:02:10;71.80;;;29.48;;
53875;SDS011;39789;53.216;5.624;2022-11-15T05:04:35;67.57;;;29.45;;
53875;SDS011;39789;53.216;5.624;2022-11-15T05:07:01;62.60;;;30.02;;
53875;SDS011;39789;53.216;5.624;2022-11-15T05:09:29;64.32;;;29.40;;
53875;SDS011;39789;53.216;5.624;2022-11-15T05:11:54;70.32;;;30.45;;
53875;SDS011;39789;53.216;5.624;2022-11-15T05:14:20;72.75;;;31.65;;
53875;SDS011;39789;53.216;5.624;2022-11-15T05:16:45;69.40;;;31.70;;
53875;SDS011;39789;53.216;5.624;2022-11-15T05:19:11;73.78;;;30.55;;
53875;SDS011;39789;53.216;5.624;2022-11-15T05:21:36;76.65;;;30.20;;
53875;SDS011;39789;53.216;5.624;2022-11-15T05:24:02;74.50;;;31.52;;
53875;SDS011;39789;53.216;5.624;2022-11-15T05:26:28;76.70;;;30.85;;
53875;SDS011;39789;53.216;5.624;2022-11-15T05:28:54;75.63;;;31.70;;
53875;SDS011;39789;53.216;5.624;2022-11-15T05:31:21;82.28;;;32.35;;
53875;SDS011;39789;53.216;5.624;2022-11-15T05:33:48;92.68;;;33.95;;
53875;SDS011;39789;53.216;5.624;2022-11-15T05:36:27;92.72;;;33.70;;
53875;SDS011;39789;53.216;5.624;2022-11-15T05:38:58;88.72;;;33.65;;
53875;SDS011;39789;53.216;5.624;2022-11-15T05:41:29;97.53;;;35.30;;
53875;SDS011;39789;53.216;5.624;2022-11-15T05:43:58;104.07;;;35.17;;
53875;SDS011;39789;53.216;5.624;2022-11-15T05:46:26;88.03;;;33.60;;
53875;SDS011;39789;53.216;5.624;2022-11-15T05:48:52;114.43;;;36.85;;
53875;SDS011;39789;53.216;5.624;2022-11-15T05:51:20;115.07;;;37.90;;
53875;SDS011;39789;53.216;5.624;2022-11-15T05:53:47;88.95;;;34.33;;
53875;SDS011;39789;53.216;5.624;2022-11-15T05:56:13;85.78;;;33.25;;
53875;SDS011;39789;53.216;5.624;2022-11-15T05:58:40;62.65;;;30.10;;
53875;SDS011;39789;53.216;5.624;2022-11-15T06:01:06;65.70;;;28.42;;
53875;SDS011;39789;53.216;5.624;2022-11-15T06:03:32;64.68;;;29.77;;
53875;SDS011;39789;53.216;5.624;2022-11-15T06:05:58;63.03;;;28.55;;
53875;SDS011;39789;53.216;5.624;2022-11-15T06:08:23;63.00;;;28.38;;
53875;SDS011;39789;53.216;5.624;2022-11-15T06:10:49;57.97;;;29.45;;
53875;SDS011;39789;53.216;5.624;2022-11-15T06:13:14;53.95;;;28.95;;
53875;SDS011;39789;53.216;5.624;2022-11-15T06:15:40;50.67;;;26.30;;
53875;SDS011;39789;53.216;5.624;2022-11-15T06:18:05;57.22;;;27.60;;
53875;SDS011;39789;53.216;5.624;2022-11-15T06:20:31;58.83;;;27.35;;
53875;SDS011;39789;53.216;5.624;2022-11-15T06:23:00;55.67;;;28.58;;
53875;SDS011;39789;53.216;5.624;2022-11-15T06:25:29;63.45;;;28.80;;
53875;SDS011;39789;53.216;5.624;2022-11-15T06:27:56;56.13;;;28.15;;
53875;SDS011;39789;53.216;5.624;2022-11-15T06:30:22;56.80;;;27.58;;
53875;SDS011;39789;53.216;5.624;2022-11-15T06:32:49;57.55;;;30.13;;
53875;SDS011;39789;53.216;5.624;2022-11-15T06:35:15;65.53;;;29.98;;
53875;SDS011;39789;53.216;5.624;2022-11-15T06:37:41;62.63;;;29.85;;
53875;SDS011;39789;53.216;5.624;2022-11-15T06:40:07;60.72;;;30.48;;
53875;SDS011;39789;53.216;5.624;2022-11-15T06:42:34;67.80;;;31.33;;
53875;SDS011;39789;53.216;5.624;2022-11-15T06:45:00;59.40;;;29.85;;
53875;SDS011;39789;53.216;5.624;2022-11-15T06:47:26;64.72;;;32.13;;
53875;SDS011;39789;53.216;5.624;2022-11-15T06:49:52;64.20;;;31.52;;
53875;SDS011;39789;53.216;5.624;2022-11-15T06:52:17;67.95;;;33.85;;
53875;SDS011;39789;53.216;5.624;2022-11-15T06:54:44;77.90;;;34.70;;
53875;SDS011;39789;53.216;5.624;2022-11-15T06:57:10;67.13;;;30.92;;
53875;SDS011;39789;53.216;5.624;2022-11-15T06:59:35;64.25;;;33.78;;
53875;SDS011;39789;53.216;5.624;2022-11-15T07:02:01;66.88;;;32.58;;
53875;SDS011;39789;53.216;5.624;2022-11-15T07:04:27;68.22;;;35.45;;
53875;SDS011;39789;53.216;5.624;2022-11-15T07:06:52;63.22;;;33.03;;
53875;SDS011;39789;53.216;5.624;2022-11-15T07:09:18;76.63;;;36.05;;
53875;SDS011;39789;53.216;5.624;2022-11-15T07:11:43;72.13;;;35.28;;
53875;SDS011;39789;53.216;5.624;2022-11-15T07:14:09;80.88;;;36.28;;
53875;SDS011;39789;53.216;5.624;2022-11-15T07:16:35;67.63;;;35.13;;
53875;SDS011;39789;53.216;5.624;2022-11-15T07:19:01;70.30;;;35.58;;
53875;SDS011;39789;53.216;5.624;2022-11-15T07:21:27;69.38;;;35.58;;
53875;SDS011;39789;53.216;5.624;2022-11-15T07:23:52;67.97;;;36.75;;
53875;SDS011;39789;53.216;5.624;2022-11-15T07:26:18;68.97;;;37.20;;
53875;SDS011;39789;53.216;5.624;2022-11-15T07:28:44;72.07;;;35.30;;
53875;SDS011;39789;53.216;5.624;2022-11-15T07:31:09;78.50;;;37.80;;
53875;SDS011;39789;53.216;5.624;2022-11-15T07:33:35;73.70;;;35.85;;
53875;SDS011;39789;53.216;5.624;2022-11-15T07:36:01;70.13;;;35.63;;
53875;SDS011;39789;53.216;5.624;2022-11-15T07:38:28;63.13;;;35.72;;
53875;SDS011;39789;53.216;5.624;2022-11-15T07:40:57;69.18;;;35.15;;
53875;SDS011;39789;53.216;5.624;2022-11-15T07:43:24;79.47;;;39.13;;
53875;SDS011;39789;53.216;5.624;2022-11-15T07:45:50;71.82;;;39.65;;
53875;SDS011;39789;53.216;5.624;2022-11-15T07:48:16;65.18;;;37.78;;
53875;SDS011;39789;53.216;5.624;2022-11-15T07:50:42;67.07;;;36.72;;
53875;SDS011;39789;53.216;5.624;2022-11-15T07:53:07;58.25;;;33.22;;
53875;SDS011;39789;53.216;5.624;2022-11-15T07:55:34;67.25;;;35.63;;
53875;SDS011;39789;53.216;5.624;2022-11-15T07:58:03;58.25;;;34.85;;
53875;SDS011;39789;53.216;5.624;2022-11-15T08:00:31;65.10;;;33.95;;
53875;SDS011;39789;53.216;5.624;2022-11-15T08:03:08;62.33;;;35.28;;
53875;SDS011;39789;53.216;5.624;2022-11-15T08:05:35;65.03;;;35.35;;
53875;SDS011;39789;53.216;5.624;2022-11-15T08:08:02;58.20;;;33.28;;
53875;SDS011;39789;53.216;5.624;2022-11-15T08:10:27;72.10;;;36.63;;
53875;SDS011;39789;53.216;5.624;2022-11-15T08:13:05;56.70;;;34.00;;
53875;SDS011;39789;53.216;5.624;2022-11-15T08:15:33;64.68;;;37.67;;
53875;SDS011;39789;53.216;5.624;2022-11-15T08:18:00;66.85;;;35.83;;
53875;SDS011;39789;53.216;5.624;2022-11-15T08:20:28;55.33;;;32.20;;
53875;SDS011;39789;53.216;5.624;2022-11-15T08:22:55;53.38;;;33.83;;
53875;SDS011;39789;53.216;5.624;2022-11-15T08:25:21;48.80;;;30.42;;
53875;SDS011;39789;53.216;5.624;2022-11-15T08:27:55;55.72;;;32.97;;
53875;SDS011;39789;53.216;5.624;2022-11-15T08:30:22;53.67;;;31.80;;
53875;SDS011;39789;53.216;5.624;2022-11-15T08:32:49;50.63;;;32.17;;
53875;SDS011;39789;53.216;5.624;2022-11-15T08:35:15;45.50;;;28.40;;
53875;SDS011;39789;53.216;5.624;2022-11-15T08:37:41;53.45;;;30.40;;
53875;SDS011;39789;53.216;5.624;2022-11-15T08:40:07;46.83;;;29.77;;
53875;SDS011;39789;53.216;5.624;2022-11-15T08:42:34;43.45;;;28.42;;
53875;SDS011;39789;53.216;5.624;2022-11-15T08:45:00;41.60;;;27.67;;
53875;SDS011;39789;53.216;5.624;2022-11-15T08:47:26;41.92;;;27.80;;
53875;SDS011;39789;53.216;5.624;2022-11-15T08:49:52;47.78;;;28.55;;
53875;SDS011;39789;53.216;5.624;2022-11-15T08:52:17;41.55;;;26.13;;
53875;SDS011;39789;53.216;5.624;2022-11-15T08:54:43;38.20;;;25.73;;
53875;SDS011;39789;53.216;5.624;2022-11-15T08:57:09;38.90;;;25.73;;
53875;SDS011;39789;53.216;5.624;2022-11-15T08:59:35;40.40;;;27.15;;
53875;SDS011;39789;53.216;5.624;2022-11-15T09:02:01;40.92;;;26.27;;
53875;SDS011;39789;53.216;5.624;2022-11-15T09:04:27;37.15;;;25.75;;
53875;SDS011;39789;53.216;5.624;2022-11-15T09:06:53;38.28;;;26.23;;
53875;SDS011;39789;53.216;5.624;2022-11-15T09:09:19;38.95;;;25.88;;
53875;SDS011;39789;53.216;5.624;2022-11-15T09:11:44;37.50;;;24.95;;
53875;SDS011;39789;53.216;5.624;2022-11-15T11:07:25;24.17;;;16.65;;
53875;SDS011;39789;53.216;5.624;2022-11-15T11:10:05;25.50;;;16.42;;
53875;SDS011;39789;53.216;5.624;2022-11-15T11:12:43;24.08;;;15.85;;
53875;SDS011;39789;53.216;5.624;2022-11-15T11:15:10;23.50;;;16.30;;
53875;SDS011;39789;53.216;5.624;2022-11-15T11:20:25;19.85;;;14.13;;
53875;SDS011;39789;53.216;5.624;2022-11-15T11:23:17;21.35;;;15.60;;
53875;SDS011;39789;53.216;5.624;2022-11-15T11:29:21;20.75;;;15.60;;
53875;SDS011;39789;53.216;5.624;2022-11-15T11:32:06;21.58;;;15.15;;
53875;SDS011;39789;53.216;5.624;2022-11-15T11:34:41;23.67;;;14.82;;
53875;SDS011;39789;53.216;5.624;2022-11-15T11:37:35;18.73;;;13.50;;
53875;SDS011;39789;53.216;5.624;2022-11-15T11:43:01;18.20;;;14.82;;
53875;SDS011;39789;53.216;5.624;2022-11-15T11:45:57;21.63;;;13.90;;
53875;SDS011;39789;53.216;5.624;2022-11-15T11:48:45;20.55;;;14.45;;
53875;SDS011;39789;53.216;5.624;2022-11-15T11:51:22;21.15;;;14.00;;
53875;SDS011;39789;53.216;5.624;2022-11-15T11:53:58;18.38;;;12.73;;
53875;SDS011;39789;53.216;5.624;2022-11-15T11:56:34;17.17;;;12.52;;
53875;SDS011;39789;53.216;5.624;2022-11-15T11:59:09;18.42;;;12.68;;
53875;SDS011;39789;53.216;5.624;2022-11-15T12:01:48;17.05;;;11.48;;
53875;SDS011;39789;53.216;5.624;2022-11-15T12:14:32;15.75;;;11.45;;
53875;SDS011;39789;53.216;5.624;2022-11-15T12:17:14;17.55;;;11.77;;
53875;SDS011;39789;53.216;5.624;2022-11-15T12:19:44;18.35;;;10.32;;
53875;SDS011;39789;53.216;5.624;2022-11-15T12:25:21;14.30;;;10.20;;
53875;SDS011;39789;53.216;5.624;2022-11-15T12:27:55;14.75;;;10.35;;
53875;SDS011;39789;53.216;5.624;2022-11-15T12:30:38;12.20;;;8.93;;
53875;SDS011;39789;53.216;5.624;2022-11-15T12:33:44;10.18;;;7.25;;
53875;SDS011;39789;53.216;5.624;2022-11-15T12:39:06;9.25;;;6.47;;
53875;SDS011;39789;53.216;5.624;2022-11-15T12:41:41;8.73;;;6.03;;
53875;SDS011;39789;53.216;5.624;2022-11-15T13:02:46;6.80;;;5.30;;
53875;SDS011;39789;53.216;5.624;2022-11-15T13:33:25;7.70;;;4.13;;
53875;SDS011;39789;53.216;5.624;2022-11-15T13:35:58;5.63;;;3.83;;
53875;SDS011;39789;53.216;5.624;2022-11-15T13:38:53;4.75;;;3.30;;
53875;SDS011;39789;53.216;5.624;2022-11-15T13:41:25;6.50;;;3.70;;
53875;SDS011;39789;53.216;5.624;2022-11-15T13:43:53;5.38;;;4.07;;
53875;SDS011;39789;53.216;5.624;2022-11-15T13:46:20;5.65;;;4.35;;
53875;SDS011;39789;53.216;5.624;2022-11-15T13:49:01;6.28;;;4.03;;
53875;SDS011;39789;53.216;5.624;2022-11-15T13:51:49;4.78;;;3.80;;
53875;SDS011;39789;53.216;5.624;2022-11-15T13:54:29;5.65;;;4.13;;
53875;SDS011;39789;53.216;5.624;2022-11-15T14:01:56;8.15;;;4.75;;
53875;SDS011;39789;53.216;5.624;2022-11-15T14:04:26;7.70;;;4.40;;
53875;SDS011;39789;53.216;5.624;2022-11-15T14:06:57;6.22;;;4.10;;
53875;SDS011;39789;53.216;5.624;2022-11-15T14:09:32;4.97;;;3.72;;
53875;SDS011;39789;53.216;5.624;2022-11-15T14:15:00;6.30;;;4.70;;
53875;SDS011;39789;53.216;5.624;2022-11-15T14:17:45;4.90;;;4.38;;
53875;SDS011;39789;53.216;5.624;2022-11-15T14:20:26;5.13;;;4.20;;
53875;SDS011;39789;53.216;5.624;2022-11-15T14:23:19;5.85;;;4.60;;
53875;SDS011;39789;53.216;5.624;2022-11-15T14:25:54;8.25;;;5.07;;
53875;SDS011;39789;53.216;5.624;2022-11-15T14:30:47;7.95;;;4.95;;
53875;SDS011;39789;53.216;5.624;2022-11-15T14:35:55;7.25;;;5.03;;
53875;SDS011;39789;53.216;5.624;2022-11-15T14:38:22;7.93;;;5.65;;
53875;SDS011;39789;53.216;5.624;2022-11-15T14:40:49;7.68;;;5.07;;
53875;SDS011;39789;53.216;5.624;2022-11-15T14:43:15;6.05;;;4.00;;
53875;SDS011;39789;53.216;5.624;2022-11-15T14:45:40;9.45;;;4.10;;
53875;SDS011;39789;53.216;5.624;2022-11-15T14:48:07;5.03;;;4.53;;
53875;SDS011;39789;53.216;5.624;2022-11-15T14:50:33;7.00;;;4.20;;
53875;SDS011;39789;53.216;5.624;2022-11-15T14:52:59;6.80;;;4.30;;
53875;SDS011;39789;53.216;5.624;2022-11-15T14:58:01;7.47;;;4.00;;
53875;SDS011;39789;53.216;5.624;2022-11-15T15:00:28;5.47;;;4.13;;
53875;SDS011;39789;53.216;5.624;2022-11-15T15:02:54;5.10;;;3.70;;
53875;SDS011;39789;53.216;5.624;2022-11-15T15:05:24;4.90;;;3.83;;
53875;SDS011;39789;53.216;5.624;2022-11-15T15:08:00;4.97;;;3.53;;
53875;SDS011;39789;53.216;5.624;2022-11-15T15:10:34;5.97;;;3.65;;
53875;SDS011;39789;53.216;5.624;2022-11-15T15:15:46;3.80;;;2.95;;
53875;SDS011;39789;53.216;5.624;2022-11-15T15:18:12;4.78;;;3.38;;
53875;SDS011;39789;53.216;5.624;2022-11-15T15:20:39;6.20;;;3.08;;
53875;SDS011;39789;53.216;5.624;2022-11-15T15:23:16;5.70;;;3.45;;
53875;SDS011;39789;53.216;5.624;2022-11-15T15:25:43;4.95;;;3.33;;
53875;SDS011;39789;53.216;5.624;2022-11-15T15:28:10;8.70;;;3.35;;
53875;SDS011;39789;53.216;5.624;2022-11-15T15:30:36;5.40;;;2.97;;
53875;SDS011;39789;53.216;5.624;2022-11-15T15:33:02;3.95;;;2.70;;
53875;SDS011;39789;53.216;5.624;2022-11-15T15:35:29;3.95;;;2.83;;
53875;SDS011;39789;53.216;5.624;2022-11-15T15:37:56;3.58;;;3.00;;
53875;SDS011;39789;53.216;5.624;2022-11-15T15:40:22;3.80;;;2.95;;
53875;SDS011;39789;53.216;5.624;2022-11-15T15:42:49;4.15;;;2.97;;
53875;SDS011;39789;53.216;5.624;2022-11-15T15:45:16;4.90;;;3.45;;
53875;SDS011;39789;53.216;5.624;2022-11-15T15:47:42;5.10;;;3.20;;
53875;SDS011;39789;53.216;5.624;2022-11-15T15:50:12;5.90;;;3.72;;
53875;SDS011;39789;53.216;5.624;2022-11-15T15:52:45;6.43;;;3.15;;
53875;SDS011;39789;53.216;5.624;2022-11-15T15:55:11;4.80;;;3.00;;
53875;SDS011;39789;53.216;5.624;2022-11-15T15:57:36;7.65;;;3.10;;
53875;SDS011;39789;53.216;5.624;2022-11-15T16:00:03;4.72;;;3.22;;
53875;SDS011;39789;53.216;5.624;2022-11-15T16:02:29;4.22;;;2.88;;
53875;SDS011;39789;53.216;5.624;2022-11-15T16:04:55;6.15;;;3.30;;
53875;SDS011;39789;53.216;5.624;2022-11-15T16:07:21;4.22;;;2.85;;
53875;SDS011;39789;53.216;5.624;2022-11-15T16:09:49;3.75;;;3.05;;
53875;SDS011;39789;53.216;5.624;2022-11-15T16:12:28;4.43;;;2.95;;
53875;SDS011;39789;53.216;5.624;2022-11-15T16:14:54;5.00;;;3.58;;
53875;SDS011;39789;53.216;5.624;2022-11-15T16:17:21;4.35;;;2.92;;
53875;SDS011;39789;53.216;5.624;2022-11-15T16:19:51;4.18;;;2.92;;
53875;SDS011;39789;53.216;5.624;2022-11-15T16:22:17;3.97;;;3.00;;
53875;SDS011;39789;53.216;5.624;2022-11-15T16:24:42;12.18;;;3.30;;
53875;SDS011;39789;53.216;5.624;2022-11-15T16:27:14;4.05;;;2.80;;
53875;SDS011;39789;53.216;5.624;2022-11-15T16:29:46;6.53;;;3.42;;
53875;SDS011;39789;53.216;5.624;2022-11-15T16:32:12;5.78;;;3.53;;
53875;SDS011;39789;53.216;5.624;2022-11-15T16:34:37;8.90;;;3.22;;
53875;SDS011;39789;53.216;5.624;2022-11-15T16:37:03;4.82;;;3.53;;
53875;SDS011;39789;53.216;5.624;2022-11-15T16:39:29;7.05;;;3.35;;
53875;SDS011;39789;53.216;5.624;2022-11-15T16:41:56;3.40;;;3.10;;
53875;SDS011;39789;53.216;5.624;2022-11-15T16:44:22;6.25;;;3.30;;
53875;SDS011;39789;53.216;5.624;2022-11-15T16:46:49;4.53;;;3.60;;
53875;SDS011;39789;53.216;5.624;2022-11-15T16:49:16;6.15;;;3.85;;
53875;SDS011;39789;53.216;5.624;2022-11-15T16:51:44;7.15;;;4.03;;
53875;SDS011;39789;53.216;5.624;2022-11-15T16:54:11;5.15;;;3.85;;
53875;SDS011;39789;53.216;5.624;2022-11-15T16:56:37;6.03;;;4.22;;
53875;SDS011;39789;53.216;5.624;2022-11-15T16:59:03;6.15;;;4.35;;
53875;SDS011;39789;53.216;5.624;2022-11-15T17:01:30;6.75;;;4.13;;
53875;SDS011;39789;53.216;5.624;2022-11-15T17:03:57;6.63;;;4.28;;
53875;SDS011;39789;53.216;5.624;2022-11-15T17:06:24;5.47;;;4.55;;
53875;SDS011;39789;53.216;5.624;2022-11-15T17:08:50;7.90;;;4.47;;
53875;SDS011;39789;53.216;5.624;2022-11-15T17:11:17;8.40;;;4.38;;
53875;SDS011;39789;53.216;5.624;2022-11-15T17:13:45;6.35;;;4.30;;
53875;SDS011;39789;53.216;5.624;2022-11-15T17:16:12;10.13;;;4.57;;
53875;SDS011;39789;53.216;5.624;2022-11-15T17:18:39;7.20;;;4.88;;
53875;SDS011;39789;53.216;5.624;2022-11-15T17:21:07;5.65;;;4.70;;
53875;SDS011;39789;53.216;5.624;2022-11-15T17:23:37;7.25;;;5.00;;
53875;SDS011;39789;53.216;5.624;2022-11-15T17:26:03;5.72;;;4.53;;
53875;SDS011;39789;53.216;5.624;2022-11-15T17:28:33;5.10;;;4.45;;
53875;SDS011;39789;53.216;5.624;2022-11-15T17:30:59;7.55;;;4.75;;
53875;SDS011;39789;53.216;5.624;2022-11-15T17:33:25;5.70;;;4.00;;
53875;SDS011;39789;53.216;5.624;2022-11-15T17:35:58;5.80;;;4.30;;
53875;SDS011;39789;53.216;5.624;2022-11-15T17:38:26;5.60;;;3.75;;
53875;SDS011;39789;53.216;5.624;2022-11-15T17:40:59;6.15;;;3.70;;
53875;SDS011;39789;53.216;5.624;2022-11-15T17:43:33;6.95;;;4.57;;
53875;SDS011;39789;53.216;5.624;2022-11-15T17:45:59;6.55;;;4.10;;
53875;SDS011;39789;53.216;5.624;2022-11-15T17:48:30;4.70;;;3.95;;
53875;SDS011;39789;53.216;5.624;2022-11-15T17:50:57;9.43;;;4.03;;
53875;SDS011;39789;53.216;5.624;2022-11-15T17:53:27;6.63;;;4.07;;
53875;SDS011;39789;53.216;5.624;2022-11-15T17:55:59;5.75;;;3.67;;
53875;SDS011;39789;53.216;5.624;2022-11-15T17:58:26;7.22;;;4.05;;
53875;SDS011;39789;53.216;5.624;2022-11-15T18:00:51;7.57;;;3.78;;
53875;SDS011;39789;53.216;5.624;2022-11-15T18:03:17;5.82;;;3.28;;
53875;SDS011;39789;53.216;5.624;2022-11-15T18:05:42;7.18;;;3.35;;
53875;SDS011;39789;53.216;5.624;2022-11-15T18:08:09;5.18;;;3.15;;
53875;SDS011;39789;53.216;5.624;2022-11-15T18:10:35;5.78;;;3.38;;
53875;SDS011;39789;53.216;5.624;2022-11-15T18:13:01;5.75;;;3.38;;
53875;SDS011;39789;53.216;5.624;2022-11-15T18:15:27;7.47;;;2.92;;
53875;SDS011;39789;53.216;5.624;2022-11-15T18:17:53;3.55;;;2.80;;